Flight Track Log - Related Links

Times and Time Zones

All times are in EST time to prevent confusion due to time zone crossing. See the FLG4179 flight status page for this flight to view local times or setup timezone preferences in your user account.

Time Position Orientation Groundspeed Altitude Reporting Facility
EST Latitude Longitude Course Direction KTS MPH feet Rate Location/Type
Fri 06:00:35 PM 35.8708 -78.8064 203° Southwest 160 184 1,400  Level Washington Center
Fri 06:01:54 PM 35.8117 -78.8372 203° Southwest 190 219 4,400 2,417 Climbing Washington Center
Fri 06:02:54 PM 35.7431 -78.8267 173° South 227 261 7,000 2,826 Climbing Washington Center
Fri 06:03:55 PM 35.7519 -78.7325 83° East 179 206 10,100 2,390 Climbing Washington Center
Fri 06:04:52 PM 35.7856 -78.6417 65° Northeast 216 249 11,700 1,932 Climbing Washington Center
Fri 06:05:53 PM 35.8386 -78.5206 62° Northeast 283 326 13,900 2,479 Climbing Washington Center
Fri 06:06:53 PM 35.8964 -78.3767 64° Northeast 384 442 16,700 2,231 Climbing Washington Center
Fri 06:07:54 PM 35.9283 -78.2494 73° East 408 470 18,400 1,916 Climbing Washington Center
Fri 06:08:52 PM 35.9422 -78.0961 84° East 430 495 20,500 1,966 Climbing Washington Center
Fri 06:09:53 PM 35.9581 -77.9322 83° East 453 521 22,300 1,623 Climbing Washington Center
Fri 06:10:54 PM 35.9736 -77.7658 83° East 472 543 23,800 1,714 Climbing Washington Center
Fri 06:11:52 PM 36.0553 -77.6294 53° Northeast 485 558 25,700 1,613 Climbing Washington Center
Fri 06:12:53 PM 36.1656 -77.5294 36° Northeast 463 533 27,000 1,091 Climbing Washington Center
Fri 06:13:53 PM 36.2797 -77.4239 37° Northeast 484 557 27,900 1,240 Climbing Washington Center
Fri 06:14:54 PM 36.3983 -77.3131 37° Northeast 510 587 29,500 1,462 Climbing Washington Center
Fri 06:15:52 PM 36.5125 -77.2044 37° Northeast 521 600 30,800 1,462 Climbing Washington Center
Fri 06:16:53 PM 36.6308 -77.0906 38° Northeast 528 608 32,400 1,082 Climbing Washington Center
Fri 06:17:54 PM 36.7489 -76.9814 37° Northeast 528 608 33,000 295 Climbing Washington Center
Fri 06:18:55 PM 36.8711 -76.8719 36° Northeast 539 620 33,000  Level Washington Center
Fri 06:19:55 PM 36.9911 -76.7594 37° Northeast 539 620 33,000  Level Washington Center
Fri 06:20:52 PM 37.1131 -76.6494 36° Northeast 539 620 33,000  Level Washington Center
Fri 06:21:53 PM 37.2372 -76.5389 35° Northeast 539 620 33,000  Level Washington Center
Fri 06:22:54 PM 37.3569 -76.4306 36° Northeast 539 620 33,000  Level Washington Center
Fri 06:23:54 PM 37.4933 -76.3117 35° Northeast 539 620 33,000  Level Washington Center
Fri 06:24:55 PM 37.6189 -76.2158 31° Northeast 539 620 33,000  Level Washington Center
Fri 06:25:52 PM 37.7467 -76.1250 29° Northeast 527 606 33,000  Level Washington Center
Fri 06:26:53 PM 37.8700 -76.0206 34° Northeast 522 601 33,000  Level Washington Center
Fri 06:27:53 PM 37.9975 -75.9211 32° Northeast 522 601 33,000  Level Washington Center
Fri 06:28:54 PM 38.1228 -75.8214 32° Northeast 522 601 33,000  Level Washington Center
Fri 06:29:53 PM 38.2481 -75.7214 32° Northeast 522 601 33,000  Level Washington Center
Fri 06:30:53 PM 38.3669 -75.6342 30° Northeast 528 608 33,000  Level Washington Center
Fri 06:31:54 PM 38.4942 -75.5333 32° Northeast 533 613 33,000  Level Washington Center
Fri 06:32:52 PM 38.6214 -75.4350 31° Northeast 533 613 33,000  Level Washington Center
Fri 06:33:53 PM 38.7483 -75.3308 33° Northeast 533 613 33,000  Level Washington Center
Fri 06:34:54 PM 38.8753 -75.2289 32° Northeast 533 613 33,000  Level Washington Center
Fri 06:35:54 PM 39.0000 -75.1242 33° Northeast 533 613 33,000  Level Washington Center
Fri 06:36:53 PM 39.1308 -75.0217 31° Northeast 538 619 33,000  Level Washington Center
Fri 06:37:53 PM 39.2594 -74.9161 32° Northeast 545 627 33,000  Level Washington Center
Fri 06:38:55 PM 39.3858 -74.8128 32° Northeast 545 627 33,000  Level Washington Center
Fri 06:39:53 PM 39.5164 -74.7067 32° Northeast 545 627 33,000  Level Washington Center
Fri 06:40:54 PM 39.6447 -74.5997 33° Northeast 545 627 33,000  Level Washington Center
Fri 06:42:26 PM 39.8483 -74.4344 32° Northeast 553 636 33,000  Level New Center
Fri 06:43:26 PM 39.9747 -74.3247 34° Northeast 543 625 33,000  Level New Center
Fri 06:44:26 PM 40.0992 -74.2036 37° Northeast 543 625 33,000  Level New Center
Fri 06:45:26 PM 40.2258 -74.0767 37° Northeast 559 643 33,000  Level New Center
Fri 06:46:26 PM 40.3672 -73.9336 38° Northeast 575 662 33,000 -1,032 Level New Center
Fri 06:48:32 PM 40.6197 -73.6872 36° Northeast 573 659 29,800 -1,500 Descending Boston Center
Fri 06:49:34 PM 40.7406 -73.5647 38° Northeast 551 634 28,300 -1,415 Descending Boston Center
Fri 06:50:35 PM 40.8553 -73.4447 38° Northeast 525 604 26,900 -1,574 Descending Boston Center
Fri 06:51:36 PM 40.9589 -73.2961 47° Northeast 531 611 25,100 -1,721 Descending Boston Center
Fri 06:52:37 PM 41.0578 -73.1467 49° Northeast 539 620 23,400 -1,805 Descending Boston Center
Fri 06:53:39 PM 41.1539 -72.9539 56° Northeast 535 616 21,400 -1,171 Descending Boston Center
Fri 06:54:40 PM 41.2194 -72.7853 63° Northeast 521 600 21,000 -197 Descending Boston Center
Fri 06:55:41 PM 41.2853 -72.6150 63° Northeast 509 586 21,000  Level Boston Center
Fri 06:56:42 PM 41.3514 -72.4453 63° Northeast 513 590 21,000  Level Boston Center
Fri 06:57:44 PM 41.4175 -72.2747 63° Northeast 516 594 21,000 -244 Level Boston Center
Fri 06:58:45 PM 41.4842 -72.1031 63° Northeast 519 597 20,500 -1,230 Descending Boston Center
Fri 06:59:46 PM 41.5547 -71.9194 63° Northeast 511 588 18,500 -1,623 Descending Boston Center
Fri 07:00:47 PM 41.6158 -71.7575 63° Northeast 495 570 17,200 -1,463 Descending Boston Center
Fri 07:01:49 PM 41.6817 -71.5867 63° Northeast 488 562 15,500 -1,561 Descending Boston Center
Fri 07:02:50 PM 41.7364 -71.4397 63° Northeast 455 524 14,000 -1,525 Descending Boston Center
Fri 07:03:51 PM 41.7939 -71.2875 63° Northeast 430 495 12,400 -1,426 Descending Boston Center
Fri 07:04:52 PM 41.8414 -71.1614 63° Northeast 384 442 11,100 -780 Descending Boston Center
Fri 07:05:54 PM 41.8894 -71.0444 61° Northeast 360 414 10,800 -442 Descending Boston Center
Fri 07:06:27 PM 41.9167 -70.9833 59° Northeast 351 404 10,400 -1,226 Descending KA90
Fri 07:07:27 PM 41.9667 -70.8667 60° Northeast 325 374 8,900 -1,250 Descending KA90
Fri 07:08:27 PM 42.0000 -70.7667 66° East 319 367 7,900 -600 Descending KA90
Fri 07:08:57 PM 42.0269 -70.7394 37° Northeast 316 364 8,000 -65 Climbing Boston Center
Fri 07:09:59 PM 42.0972 -70.6344 48° Northeast 315 362 7,800 -780 Descending Boston Center
Fri 07:11:00 PM 42.1722 -70.5989 19° North 288 331 6,400 -1,279 Descending Boston Center
Fri 07:12:01 PM 42.2475 -70.5878 North 279 321 5,200 -738 Descending Boston Center
Fri 07:13:02 PM 42.3178 -70.5914 358° North 274 315 4,900 -148 Descending Boston Center
Fri 07:14:03 PM 42.3739 -70.6358 330° Northwest 239 275 4,900 -341 Level Boston Center
Fri 07:15:05 PM 42.4161 -70.7003 312° West 239 275 4,200 -829 Descending Boston Center
Fri 07:16:06 PM 42.4422 -70.7758 295° West 225 259 3,200 -639 Descending Boston Center
Fri 07:17:07 PM 42.4714 -70.8522 297° West 212 244 2,900 -537 Descending Boston Center
Fri 07:18:09 PM 42.4647 -70.9197 262° West 170 196 2,100 -638 Descending Boston Center
Fri 07:19:28 PM 42.4333 -70.9667 228° Southwest 146 168 1,400 -647 Descending KA90
Fri 07:20:28 PM 42.4000 -70.9833 200° South 119 137 600 -800 Descending KA90

Login

Don't have an account? Register now (free) for customized features, flight alerts, and more!